Airport View

Enter AWOS ICAO identifier for current METAR.

ex. KFNL

KRMN 210035Z AUTO 00000KT 10SM CLR 16/16 A3026 RMK AO2 T01580158

21 Sep 2019 00:46

Frequency: 126.325

Phone: 540-657-8283

Other Area AWOS: KEZF - KNYG - KHWY - KHEF

TAF KNYG 2021/2121 17008KT 9999 FEW200 QNH3009INS BECMG 2118/2120 VRB15G20KT 4800 TSRA BR BKN050CB OVC100 QNH3009INS LAST NO AMDS AFT 2021 NEXT 2109 T14/2111Z T26/2121Z